Time;durP1;ratioP1;P1;durP2;ratioP2;P2;SDS_P1;SDS_P2;PMS_P1;PMS_P2;Temp;Humidity;BMP_temperature;BMP_pressure;BME280_temperature;BME280_humidity;BME280_pressure;Samples;Min_cycle;Max_cycle;Signal;HPM_P1;HPM_P2
2021/07/28 00:00:56;;;;;;;12.32;7.55;;;18.30;98.90;;;18.22;90.67;100030.19;5072724;28;20511;-85
2021/07/28 00:03:23;;;;;;;12.02;7.72;;;18.30;98.90;;;18.24;90.67;100022.53;5090981;28;20098;-86
2021/07/28 00:05:50;;;;;;;19.83;8.15;;;18.20;98.80;;;18.25;90.28;100018.66;5072276;28;20048;-85
2021/07/28 00:08:20;;;;;;;17.23;8.02;;;18.30;98.80;;;18.26;90.39;100020.34;5090796;28;20036;-85
2021/07/28 00:10:48;;;;;;;14.38;8.02;;;18.30;98.80;;;18.24;90.33;100021.66;5090999;28;20118;-85
2021/07/28 00:13:15;;;;;;;13.02;7.45;;;18.20;98.70;;;18.25;90.37;100024.19;5090959;28;20071;-85
2021/07/28 00:15:43;;;;;;;13.38;7.90;;;18.30;99.00;;;18.19;90.77;100025.16;5090896;28;20133;-86
2021/07/28 00:18:25;;;;;;;13.20;7.38;;;18.30;99.00;;;18.19;91.00;100027.94;5090269;28;20044;-85
2021/07/28 00:23:37;;;;;;;17.00;8.02;;;18.30;99.20;;;18.22;91.39;100012.81;5090432;28;20040;-85
2021/07/28 00:26:06;;;;;;;14.02;8.20;;;18.30;99.10;;;18.21;91.05;100014.75;5089957;28;20078;-85
2021/07/28 00:28:33;;;;;;;10.82;7.85;;;18.40;99.00;;;18.22;91.39;100008.16;5072480;28;20044;-85
2021/07/28 00:31:00;;;;;;;17.77;8.00;;;18.40;99.20;;;18.22;91.53;100012.81;5072171;28;20105;-85
2021/07/28 00:33:27;;;;;;;12.48;8.13;;;18.40;99.10;;;18.25;91.51;100013.16;5090023;28;20135;-85
2021/07/28 00:35:55;;;;;;;14.30;7.78;;;18.40;99.20;;;18.19;91.74;100013.31;5089796;28;20052;-86
2021/07/28 00:38:24;;;;;;;13.07;7.47;;;18.40;99.20;;;18.19;91.96;100014.16;5090325;28;20055;-85
2021/07/28 00:40:51;;;;;;;17.40;8.50;;;18.40;99.10;;;18.21;92.04;100011.97;5090296;28;20044;-84
2021/07/28 00:43:24;;;;;;;15.07;8.23;;;18.40;99.20;;;18.23;92.08;100009.81;5090158;28;20142;-85
2021/07/28 00:45:52;;;;;;;15.98;7.85;;;18.50;99.40;;;18.21;92.18;100002.91;5091979;28;20043;-85
2021/07/28 00:48:19;;;;;;;13.93;7.82;;;18.40;99.10;;;18.21;92.29;100000.97;5090403;28;20240;-85
2021/07/28 00:50:47;;;;;;;15.77;8.05;;;18.50;99.30;;;18.23;92.32;99997.97;5090202;28;20492;-85
2021/07/28 00:53:18;;;;;;;11.57;7.80;;;18.50;99.20;;;18.21;92.68;99984.44;5071988;28;20058;-85
2021/07/28 00:55:47;;;;;;;15.90;8.32;;;18.50;99.40;;;18.23;92.36;99982.28;5090102;28;20496;-86
2021/07/28 00:58:15;;;;;;;14.68;8.60;;;18.50;99.40;;;18.19;92.55;99994.06;5089805;28;20090;-85
2021/07/28 01:00:44;;;;;;;15.10;8.43;;;18.50;99.40;;;18.15;92.42;99979.94;5090202;28;20044;-85
2021/07/28 01:03:12;;;;;;;16.27;7.90;;;18.50;99.30;;;18.18;92.62;99976.66;5089925;28;20071;-85
2021/07/28 01:05:39;;;;;;;13.30;7.88;;;18.50;99.20;;;18.21;92.34;99978.94;5090011;28;20875;-86
2021/07/28 01:08:09;;;;;;;14.38;7.50;;;18.50;99.30;;;18.18;92.46;99979.41;5089484;28;20507;-85
2021/07/28 01:10:36;;;;;;;13.18;7.47;;;18.40;99.20;;;18.18;92.27;99968.41;5090002;28;20108;-86
2021/07/28 01:13:06;;;;;;;12.05;7.45;;;18.50;99.20;;;18.21;92.25;99972.59;5089996;28;20061;-85
2021/07/28 01:15:39;;;;;;;13.02;7.97;;;18.40;99.10;;;18.21;92.08;99973.41;5089897;28;20047;-85
2021/07/28 01:18:10;;;;;;;13.88;7.13;;;18.40;99.10;;;18.18;91.94;99973.91;5089249;28;20048;-85
2021/07/28 01:20:40;;;;;;;15.27;8.05;;;18.40;99.10;;;18.18;91.74;99979.41;5090089;28;20408;-85
2021/07/28 01:23:21;;;;;;;12.90;7.85;;;18.40;99.00;;;18.18;91.55;99979.41;5089886;28;20573;-85
2021/07/28 01:25:50;;;;;;;15.65;8.60;;;18.40;99.10;;;18.11;91.65;99971.31;5089585;28;20040;-85
2021/07/28 01:28:17;;;;;;;13.43;7.97;;;18.30;99.10;;;18.13;91.92;99971.91;5071314;28;20527;-85
2021/07/28 01:30:45;;;;;;;14.32;8.27;;;18.30;99.20;;;18.12;91.49;99978.50;5071331;28;20091;-84
2021/07/28 01:33:12;;;;;;;13.55;7.95;;;18.30;99.20;;;18.12;91.85;99969.41;5089511;28;20085;-86
2021/07/28 01:35:41;;;;;;;16.98;8.05;;;18.30;99.10;;;18.10;92.10;99971.56;5089845;28;20048;-85
2021/07/28 01:38:09;;;;;;;14.02;7.97;;;18.30;99.30;;;18.11;92.13;99973.25;5088933;28;20048;-85
2021/07/28 01:40:40;;;;;;;16.58;8.05;;;18.30;99.40;;;18.11;92.15;99974.09;5089470;28;20063;-85
2021/07/28 01:43:15;;;;;;;14.90;8.15;;;18.30;99.40;;;18.11;92.28;99970.50;5089419;28;20750;-85
2021/07/28 01:45:43;;;;;;;13.63;8.45;;;18.40;99.50;;;18.10;92.47;99971.56;5088606;28;20043;-85
2021/07/28 01:48:10;;;;;;;13.20;7.88;;;18.40;99.40;;;18.09;92.44;99975.41;5088668;28;20098;-85
2021/07/28 01:50:37;;;;;;;14.95;8.00;;;18.40;99.40;;;18.05;92.45;99968.72;5089279;28;20455;-85
2021/07/28 01:53:06;;;;;;;12.27;8.05;;;18.40;99.20;;;18.08;92.34;99966.31;5089472;28;20074;-85
2021/07/28 01:55:33;;;;;;;14.13;8.40;;;18.40;99.40;;;18.07;92.43;99967.41;5089172;28;20720;-85
2021/07/28 01:58:02;;;;;;;12.63;8.30;;;18.40;99.40;;;18.02;93.10;99977.50;5088143;28;20526;-85
2021/07/28 02:00:29;;;;;;;15.93;8.95;;;18.30;99.80;;;18.00;93.01;99968.63;5089178;28;20866;-85
2021/07/28 02:03:02;;;;;;;15.27;8.82;;;18.30;99.80;;;18.03;93.25;99966.22;5089000;28;20123;-85
2021/07/28 02:05:30;;;;;;;13.13;8.43;;;18.30;99.80;;;18.05;92.88;99963.22;5073498;22;20045;-86
2021/07/28 02:08:01;;;;;;;14.88;8.80;;;18.30;99.50;;;18.04;92.61;99964.31;5029984;28;20044;-87
2021/07/28 02:10:29;;;;;;;14.00;8.90;;;18.40;99.40;;;18.02;92.88;99960.97;5048667;28;20509;-87
2021/07/28 02:12:57;;;;;;;15.98;8.52;;;18.30;99.50;;;18.05;92.79;99957.69;5048673;28;20055;-87
2021/07/28 02:15:26;;;;;;;13.45;8.50;;;18.30;99.50;;;18.05;92.92;99955.81;5033098;28;20084;-87
2021/07/28 02:17:54;;;;;;;14.45;8.43;;;18.30;99.50;;;18.08;92.55;99957.22;5028127;28;20049;-87
2021/07/28 02:20:23;;;;;;;13.55;8.57;;;18.30;99.50;;;18.09;92.38;99958.91;5028684;28;20715;-87
2021/07/28 02:22:51;;;;;;;13.13;8.73;;;18.30;99.70;;;18.09;92.18;99956.97;5028765;28;20509;-86
2021/07/28 02:25:19;;;;;;;17.80;8.68;;;18.30;99.60;;;18.06;92.28;99959.38;5010651;28;20132;-87
2021/07/28 02:27:46;;;;;;;16.38;8.57;;;18.30;99.60;;;18.00;92.18;99952.13;5028087;28;20490;-87
2021/07/28 02:30:16;;;;;;;13.60;8.30;;;18.20;99.30;;;18.01;92.19;99953.78;5028616;28;20073;-87
2021/07/28 02:32:46;;;;;;;15.52;8.50;;;18.20;99.50;;;18.03;91.93;99957.13;5028546;28;20037;-86
2021/07/28 02:35:14;;;;;;;14.70;9.02;;;18.20;99.40;;;18.05;91.88;99963.22;5028620;28;20468;-87
2021/07/28 02:37:43;;;;;;;14.23;8.60;;;18.20;99.40;;;18.00;91.90;99960.38;5027856;28;20041;-86
2021/07/28 02:40:13;;;;;;;15.63;8.43;;;18.20;99.60;;;17.98;92.12;99958.69;5028461;28;20662;-86
2021/07/28 02:42:40;;;;;;;11.80;8.88;;;18.20;99.50;;;18.01;91.84;99956.53;5031184;28;20096;-86
2021/07/28 02:45:08;;;;;;;15.50;8.40;;;18.20;99.30;;;18.02;91.78;99952.72;5028438;28;20155;-87
2021/07/28 02:47:36;;;;;;;15.10;9.65;;;18.20;99.30;;;18.00;91.99;99960.38;5027866;28;20042;-87
2021/07/28 02:50:06;;;;;;;15.50;8.32;;;18.20;99.40;;;18.00;91.94;99957.63;5028509;28;20593;-87
2021/07/28 02:52:33;;;;;;;12.70;8.90;;;18.20;99.50;;;18.00;91.73;99952.94;5028522;28;20264;-87
2021/07/28 02:55:05;;;;;;;14.80;8.80;;;18.20;99.50;;;17.97;92.22;99953.44;5028402;28;20045;-86
2021/07/28 02:57:33;;;;;;;17.08;9.40;;;18.10;99.60;;;17.98;92.25;99957.88;5030185;28;20037;-86
2021/07/28 03:00:01;;;;;;;15.65;9.50;;;18.20;99.70;;;17.92;92.91;99948.69;5032061;28;20049;-86
2021/07/28 03:02:28;;;;;;;13.52;8.98;;;18.20;99.70;;;17.92;93.15;99945.94;5032226;28;20053;-86
2021/07/28 03:04:56;;;;;;;14.48;8.48;;;18.20;99.80;;;17.95;92.85;99948.19;5031792;28;20045;-86
2021/07/28 03:07:24;;;;;;;18.83;9.35;;;18.20;99.80;;;17.97;92.98;99951.53;5013434;28;20057;-86
2021/07/28 03:09:51;;;;;;;14.55;9.40;;;18.20;99.80;;;17.99;92.80;99945.75;5014143;28;20077;-86
2021/07/28 03:12:19;;;;;;;15.50;9.13;;;18.20;99.70;;;18.00;92.88;99946.63;5031749;28;20168;-87
2021/07/28 03:14:46;;;;;;;13.32;8.85;;;18.20;99.90;;;17.97;93.39;99954.28;5031764;28;20124;-86
2021/07/28 03:17:13;;;;;;;15.15;9.63;;;18.30;99.90;;;17.96;93.10;99955.34;5031138;28;20565;-87
2021/07/28 03:19:41;;;;;;;14.68;9.30;;;18.30;99.90;;;18.00;92.95;99952.13;5031864;28;20073;-86
2021/07/28 03:22:08;;;;;;;22.15;10.43;;;18.30;99.90;;;18.01;93.20;99951.03;5013794;28;20053;-87
2021/07/28 03:24:37;;;;;;;15.80;10.15;;;18.30;99.90;;;18.01;93.29;99942.75;5031584;28;20148;-87
2021/07/28 03:27:04;;;;;;;14.00;9.82;;;18.30;99.90;;;18.01;93.37;99935.34;5031025;28;20099;-87
2021/07/28 03:29:32;;;;;;;14.65;8.85;;;18.30;99.90;;;18.01;93.42;99940.00;5031729;28;20123;-86
2021/07/28 03:31:59;;;;;;;16.33;9.90;;;18.30;99.90;;;18.03;93.36;99940.59;5031646;28;20095;-87
2021/07/28 03:34:26;;;;;;;18.58;9.98;;;18.30;99.90;;;18.03;93.22;99933.19;5031430;28;20045;-87
2021/07/28 03:36:53;;;;;;;17.92;9.73;;;18.40;99.90;;;18.03;93.45;99935.09;5030837;28;20041;-87
2021/07/28 03:39:21;;;;;;;18.35;10.00;;;18.30;99.90;;;18.02;93.72;99937.00;5013635;28;20100;-88
2021/07/28 03:41:49;;;;;;;15.15;9.38;;;18.30;99.90;;;18.01;93.22;99935.34;5031241;28;20119;-86
2021/07/28 03:44:17;;;;;;;16.48;9.40;;;18.30;99.90;;;17.98;93.20;99936.66;5013236;28;20053;-86
2021/07/28 03:46:44;;;;;;;15.93;8.90;;;18.30;99.70;;;17.98;93.10;99942.19;5030660;28;20115;-86
2021/07/28 03:49:11;;;;;;;15.88;9.80;;;18.30;99.80;;;18.00;92.98;99947.44;5031406;28;20045;-86
2021/07/28 03:51:38;;;;;;;15.65;9.20;;;18.30;99.80;;;17.95;93.30;99941.84;5031051;28;20107;-86
2021/07/28 03:54:06;;;;;;;14.77;9.30;;;18.20;99.80;;;17.93;93.03;99942.09;5013130;28;20045;-87
2021/07/28 03:56:33;;;;;;;14.63;9.32;;;18.20;99.80;;;17.93;92.96;99939.34;5030264;28;20061;-86
2021/07/28 03:59:02;;;;;;;13.98;9.27;;;18.20;99.70;;;17.95;92.88;99937.19;5031014;28;20049;-87
2021/07/28 04:01:29;;;;;;;16.63;9.48;;;18.20;99.60;;;17.95;92.77;99937.19;5013088;28;20417;-86
2021/07/28 04:03:56;;;;;;;16.98;9.73;;;18.20;99.90;;;17.93;93.24;99936.59;5030913;28;20574;-86
2021/07/28 04:06:24;;;;;;;14.93;9.90;;;18.20;99.90;;;17.96;93.15;99936.09;5030099;28;20038;-87
2021/07/28 04:08:51;;;;;;;13.48;9.02;;;18.30;99.90;;;17.97;92.98;99937.78;5030049;28;20128;-86
2021/07/28 04:11:18;;;;;;;13.27;8.90;;;18.30;99.80;;;17.97;93.19;99937.78;5030872;28;20039;-86
2021/07/28 04:13:45;;;;;;;17.27;9.55;;;18.40;99.70;;;17.93;93.43;99935.75;5030731;28;20100;-87
2021/07/28 04:16:14;;;;;;;16.63;9.52;;;18.30;99.70;;;17.94;93.45;99930.00;5029937;28;20490;-86
2021/07/28 04:18:41;;;;;;;16.67;9.00;;;18.40;99.60;;;17.94;93.80;99930.00;5012744;28;20049;-87
2021/07/28 04:21:09;;;;;;;16.42;9.77;;;18.40;99.50;;;17.95;93.56;99930.81;5012608;28;20049;-87
2021/07/28 04:23:36;;;;;;;15.00;9.90;;;18.30;99.50;;;17.97;93.59;99926.75;5030671;28;20069;-86
2021/07/28 04:26:03;;;;;;;13.90;9.25;;;18.40;99.70;;;17.98;93.54;99942.19;5011904;28;20445;-87
2021/07/28 04:28:30;;;;;;;14.57;9.25;;;18.40;99.80;;;18.00;93.93;99933.69;5030525;28;20052;-86
2021/07/28 04:30:58;;;;;;;14.60;9.32;;;18.40;99.90;;;18.00;93.64;99938.34;5030540;28;20559;-86
2021/07/28 04:33:26;;;;;;;15.48;9.65;;;18.40;99.70;;;18.01;93.80;99942.75;5012581;28;20046;-87
2021/07/28 04:35:53;;;;;;;15.75;9.57;;;18.40;99.60;;;18.01;93.95;99935.34;5011743;28;20111;-87
2021/07/28 04:38:21;;;;;;;18.42;10.70;;;18.40;99.80;;;18.01;94.47;99940.00;5030013;28;20049;-87
2021/07/28 04:40:51;;;;;;;16.85;9.73;;;18.50;99.90;;;17.98;94.26;99942.19;5030183;28;20065;-86
2021/07/28 04:43:19;;;;;;;16.10;9.77;;;18.50;99.80;;;18.00;94.68;99938.34;5029965;28;20053;-86
2021/07/28 04:45:46;;;;;;;17.20;10.32;;;18.50;99.90;;;18.02;94.68;99944.44;5029686;28;21168;-86
2021/07/28 04:48:13;;;;;;;17.73;9.45;;;18.60;99.90;;;18.04;94.60;99948.63;5011499;28;20045;-87
2021/07/28 04:50:42;;;;;;;17.55;10.20;;;18.60;99.90;;;18.02;95.08;99949.94;5029913;28;20042;-87
2021/07/28 04:53:09;;;;;;;17.13;9.82;;;18.50;99.90;;;18.03;95.04;99948.84;5014969;28;20505;-87
2021/07/28 04:55:38;;;;;;;15.88;9.98;;;18.50;99.90;;;18.03;95.15;99954.34;5029857;28;20128;-87
2021/07/28 04:58:07;;;;;;;27.30;10.60;;;18.60;99.90;;;18.02;95.44;99952.72;5029172;28;20045;-88
2021/07/28 05:00:34;;;;;;;16.23;9.70;;;18.60;99.90;;;18.02;95.22;99953.53;5029870;28;20049;-87
2021/07/28 05:03:02;;;;;;;16.35;9.63;;;18.50;99.90;;;18.00;95.41;99949.38;5012097;28;20045;-86
2021/07/28 05:05:29;;;;;;;12.55;8.88;;;18.60;99.90;;;18.02;95.22;99967.31;5029450;28;20569;-87
2021/07/28 05:07:57;;;;;;;15.77;9.70;;;18.60;99.90;;;18.03;95.39;99962.63;5029063;28;20076;-87
2021/07/28 05:10:25;;;;;;;20.88;9.98;;;18.60;99.90;;;18.01;95.42;99956.53;5029591;28;20049;-87
2021/07/28 05:12:53;;;;;;;13.75;9.00;;;18.60;99.90;;;17.99;95.64;99954.00;5029644;28;20049;-86
2021/07/28 05:15:20;;;;;;;15.98;9.38;;;18.60;99.90;;;18.00;95.80;99954.88;5029388;28;20077;-87
2021/07/28 05:17:47;;;;;;;16.40;9.80;;;18.70;99.90;;;18.03;95.65;99963.47;5028892;28;20060;-87
2021/07/28 05:20:16;;;;;;;17.45;9.30;;;18.70;99.50;;;18.04;95.52;99958.81;5029422;28;20468;-87
2021/07/28 05:22:44;;;;;;;19.98;9.60;;;18.70;99.50;;;18.02;95.42;99963.72;5029454;28;20052;-87
2021/07/28 05:25:14;;;;;;;13.75;8.95;;;18.90;98.90;;;18.08;96.06;99959.97;5029238;28;20045;-87
2021/07/28 05:27:42;;;;;;;14.07;9.45;;;19.00;98.70;;;18.09;95.99;99956.16;5010953;28;20069;-86
2021/07/28 05:30:10;;;;;;;17.85;9.20;;;19.20;98.10;;;18.11;96.57;99962.25;5029365;28;20041;-86
2021/07/28 05:32:38;;;;;;;13.85;8.63;;;19.40;97.10;;;18.15;96.44;99953.22;5029322;28;20057;-86
2021/07/28 05:35:06;;;;;;;14.88;9.55;;;19.50;96.50;;;18.19;96.19;99955.50;5029129;28;20121;-86
2021/07/28 05:37:33;;;;;;;18.08;9.32;;;19.50;96.80;;;18.17;96.78;99964.81;5028548;28;20103;-87
2021/07/28 05:40:00;;;;;;;16.38;9.13;;;19.60;96.60;;;18.20;96.55;99959.91;5029282;28;20103;-87
2021/07/28 05:42:29;;;;;;;14.57;8.70;;;19.60;96.40;;;18.23;96.25;99953.91;5011364;28;20077;-87
2021/07/28 05:44:57;;;;;;;15.02;9.23;;;19.60;95.90;;;18.26;96.48;99943.22;5011235;28;20140;-87
2021/07/28 05:47:24;;;;;;;15.13;8.50;;;19.70;96.00;;;18.27;96.05;99946.81;5010567;28;20077;-86
2021/07/28 05:49:51;;;;;;;16.73;9.18;;;19.70;95.80;;;18.29;95.87;99937.19;5011305;28;20775;-87
2021/07/28 05:52:18;;;;;;;13.48;9.68;;;19.80;95.40;;;18.35;96.23;99938.97;5028933;28;20080;-87
2021/07/28 05:54:49;;;;;;;16.35;9.05;;;19.90;95.40;;;18.41;95.96;99944.53;5011137;28;20068;-87
2021/07/28 05:57:16;;;;;;;13.00;8.43;;;20.00;94.70;;;18.43;95.75;99939.63;5028749;28;20447;-87
2021/07/28 05:59:44;;;;;;;17.17;9.10;;;20.10;94.10;;;18.48;95.45;99943.28;5028964;28;20077;-86
2021/07/28 06:02:12;;;;;;;17.42;8.60;;;20.30;93.00;;;18.59;96.62;99935.19;5028967;28;20049;-87
2021/07/28 06:04:39;;;;;;;13.02;8.88;;;20.90;91.50;;;18.63;96.51;99928.91;5028824;28;20038;-87
2021/07/28 06:07:07;;;;;;;14.77;8.80;;;21.00;91.00;;;18.70;96.53;99923.25;5010387;28;20104;-87
2021/07/28 06:09:35;;;;;;;14.65;8.88;;;21.00;90.90;;;18.74;95.97;99924.41;5011068;28;20502;-87
2021/07/28 06:12:02;;;;;;;15.73;8.15;;;21.00;90.90;;;18.81;95.45;99927.00;5028919;28;20053;-88
2021/07/28 06:14:29;;;;;;;16.70;9.43;;;21.50;89.10;;;18.84;95.25;99927.34;5028879;28;20073;-87
2021/07/28 06:16:58;;;;;;;15.82;9.68;;;21.60;87.90;;;18.88;95.12;99924.91;5028115;28;20049;-87
2021/07/28 06:19:25;;;;;;;14.82;9.35;;;21.60;88.50;;;18.94;94.92;99926.63;5011069;28;20053;-87
2021/07/28 06:21:52;;;;;;;12.52;8.32;;;22.10;85.90;;;18.95;94.21;99917.28;5028738;28;20732;-87
2021/07/28 06:24:20;;;;;;;14.80;9.20;;;21.80;86.40;;;18.94;93.83;99933.00;5010846;28;20144;-88
2021/07/28 06:26:47;;;;;;;13.30;8.25;;;21.30;88.10;;;18.91;93.00;99932.69;5027958;28;20681;-87
2021/07/28 06:29:14;;;;;;;12.82;8.93;;;21.00;88.90;;;18.88;92.25;99927.66;5010926;28;20391;-88
2021/07/28 06:31:41;;;;;;;15.20;8.43;;;20.80;89.90;;;18.91;93.58;99927.16;5029712;28;20064;-87
2021/07/28 06:34:10;;;;;;;11.93;7.95;;;20.60;91.50;;;18.90;92.94;99922.72;5032634;28;20057;-88
2021/07/28 06:36:37;;;;;;;13.82;8.43;;;20.50;92.10;;;18.93;93.42;99930.50;5031833;28;20041;-87
2021/07/28 06:39:05;;;;;;;13.55;7.47;;;20.40;92.40;;;18.89;94.00;99937.63;5014784;28;20049;-87
2021/07/28 06:41:32;;;;;;;15.50;8.50;;;20.50;92.40;;;18.91;94.04;99938.19;5014733;28;20144;-87
2021/07/28 06:43:59;;;;;;;11.82;7.97;;;20.60;92.20;;;18.92;94.24;99934.34;5014635;28;20056;-87
2021/07/28 06:46:26;;;;;;;14.32;8.18;;;20.60;92.20;;;18.93;94.55;99931.31;5031567;28;20668;-88
2021/07/28 06:48:54;;;;;;;13.85;7.78;;;20.60;92.30;;;18.96;94.40;99941.00;5014555;28;20123;-87
2021/07/28 06:51:22;;;;;;;13.98;7.65;;;20.50;92.40;;;18.92;93.53;99942.59;5014395;28;20104;-87
2021/07/28 06:53:50;;;;;;;11.48;7.22;;;20.40;92.20;;;18.93;93.76;99934.09;5032297;28;20045;-87
2021/07/28 06:56:17;;;;;;;16.67;8.18;;;20.30;93.30;;;18.96;93.68;99941.00;5013589;28;20544;-87
2021/07/28 06:58:44;;;;;;;12.80;7.82;;;20.30;93.80;;;18.93;93.69;99936.84;5016550;28;20149;-88
2021/07/28 07:01:11;;;;;;;11.05;7.28;;;20.20;93.90;;;18.90;93.97;99931.00;5032165;28;20049;-88
2021/07/28 07:03:39;;;;;;;13.45;7.78;;;20.10;94.20;;;18.89;93.77;99934.84;5031828;28;20056;-87
2021/07/28 07:06:07;;;;;;;13.40;7.72;;;20.20;93.80;;;18.90;93.61;99942.84;5031245;28;20136;-87
2021/07/28 07:08:35;;;;;;;15.20;7.63;;;20.10;93.90;;;18.88;93.12;99946.97;5014226;28;20124;-88
2021/07/28 07:11:03;;;;;;;17.17;7.10;;;20.10;94.00;;;18.87;94.13;99945.31;5031823;28;20057;-87
2021/07/28 07:13:33;;;;;;;12.35;7.65;;;20.00;94.70;;;18.90;94.11;99951.13;5031988;28;20486;-87
2021/07/28 07:16:01;;;;;;;12.77;8.30;;;20.00;95.40;;;18.89;94.90;99946.72;5031243;28;20112;-87
2021/07/28 07:18:28;;;;;;;14.73;8.32;;;20.00;96.10;;;18.90;95.23;99958.56;5031763;28;20038;-87
2021/07/28 07:20:55;;;;;;;15.70;7.90;;;20.00;96.30;;;18.88;95.60;99949.72;5013851;28;20061;-87
2021/07/28 07:23:22;;;;;;;13.52;8.15;;;20.00;96.20;;;18.82;95.51;99953.50;5031787;28;20060;-87
2021/07/28 07:25:57;;;;;;;17.10;8.30;;;19.90;96.20;;;18.81;96.07;99949.91;5013436;28;20123;-87
2021/07/28 07:28:25;;;;;;;12.50;7.50;;;19.90;96.80;;;18.80;95.26;99937.19;5031546;28;20095;-87
2021/07/28 07:30:52;;;;;;;12.48;7.47;;;19.80;96.30;;;18.78;95.79;99950.38;5031368;28;20072;-88
2021/07/28 07:33:38;;;;;;;12.40;7.50;;;19.80;96.50;;;18.78;96.35;99955.88;5031445;28;20041;-87
2021/07/28 07:36:07;;;;;;;15.10;7.97;;;19.90;96.70;;;18.80;96.34;99941.84;5012870;28;20041;-88
2021/07/28 07:38:35;;;;;;;15.38;7.25;;;19.90;96.50;;;18.80;96.26;99944.63;5013683;28;20135;-87
2021/07/28 07:41:04;;;;;;;13.60;6.82;;;20.10;96.10;;;18.83;96.58;99941.38;5031480;28;20045;-87
2021/07/28 07:43:31;;;;;;;15.95;7.10;;;20.20;95.40;;;18.81;96.02;99936.13;5012299;28;20045;-87
2021/07/28 07:45:59;;;;;;;13.07;7.43;;;20.20;95.20;;;18.83;96.78;99931.19;5012575;28;20073;-87
2021/07/28 07:48:26;;;;;;;18.13;7.95;;;20.30;95.30;;;18.87;97.04;99937.03;5031278;28;20088;-87
2021/07/28 07:50:55;;;;;;;14.65;8.00;;;20.40;95.00;;;18.89;97.06;99937.63;5031311;28;20045;-87
2021/07/28 07:53:22;;;;;;;11.68;6.97;;;20.40;95.00;;;18.87;97.36;99935.09;5031188;28;20046;-87
2021/07/28 07:55:50;;;;;;;16.02;7.40;;;20.30;95.00;;;18.90;96.76;99926.31;5012713;28;20053;-87
2021/07/28 07:58:19;;;;;;;13.60;7.60;;;20.30;95.00;;;18.93;97.14;99941.53;5030911;28;20041;-87
2021/07/28 08:00:46;;;;;;;16.90;8.52;;;20.30;95.90;;;18.93;97.55;99933.25;5013130;28;20084;-87
2021/07/28 08:03:13;;;;;;;13.77;7.28;;;20.30;96.00;;;18.95;97.41;99936.59;5013111;28;20053;-87
2021/07/28 08:05:40;;;;;;;16.02;7.00;;;20.30;95.80;;;18.94;97.38;99937.66;5013122;28;20041;-87
2021/07/28 08:08:08;;;;;;;16.48;7.75;;;20.40;95.60;;;18.97;97.75;99939.09;5012358;28;20103;-87
2021/07/28 08:10:35;;;;;;;13.50;7.47;;;20.40;95.60;;;18.97;97.97;99939.09;5012793;28;20081;-87
2021/07/28 08:13:03;;;;;;;12.77;7.50;;;20.40;95.90;;;18.95;98.31;99945.69;5030758;28;20498;-88
2021/07/28 08:15:31;;;;;;;17.90;8.10;;;20.30;96.30;;;18.93;98.90;99953.38;5030526;28;20104;-87
2021/07/28 08:18:00;;;;;;;14.30;7.72;;;20.20;96.90;;;18.93;99.03;99947.03;5012235;28;20049;-86
2021/07/28 08:20:27;;;;;;;16.25;8.05;;;20.20;97.20;;;18.89;99.56;99952.22;5030726;28;20068;-87
2021/07/28 08:22:55;;;;;;;11.70;7.40;;;20.10;97.70;;;18.88;99.72;99960.75;5030536;28;20045;-87
2021/07/28 08:25:22;;;;;;;15.55;8.02;;;20.00;98.20;;;18.83;99.33;99964.28;5030514;28;20085;-87
2021/07/28 08:27:49;;;;;;;15.30;7.80;;;19.90;98.20;;;18.81;99.77;99962.84;5029642;28;20493;-87
2021/07/28 08:30:17;;;;;;;11.88;7.72;;;20.00;98.30;;;18.73;100.00;99966.81;5030348;28;20124;-87
2021/07/28 08:32:45;;;;;;;12.45;6.40;;;20.10;97.70;;;18.75;100.00;99968.25;5030415;28;20514;-87
2021/07/28 08:35:13;;;;;;;11.80;6.50;;;20.20;97.00;;;18.80;100.00;99961.16;5030192;28;20049;-87
2021/07/28 08:37:41;;;;;;;13.68;6.63;;;20.30;97.10;;;18.84;100.00;99959.59;5029516;28;20080;-87
2021/07/28 08:40:12;;;;;;;11.98;6.70;;;20.40;96.10;;;18.87;100.00;99959.09;5012439;28;20461;-87
2021/07/28 08:42:41;;;;;;;9.98;6.90;;;20.50;96.40;;;18.89;100.00;99966.00;5030208;28;20111;-87
2021/07/28 08:45:10;;;;;;;11.32;6.22;;;20.60;96.60;;;18.95;100.00;99961.41;5030166;28;20107;-87
2021/07/28 08:47:38;;;;;;;12.57;6.07;;;20.80;95.10;;;18.97;100.00;99959.22;5011546;28;20099;-87
2021/07/28 08:50:09;;;;;;;11.10;6.03;;;20.90;95.40;;;19.00;100.00;99964.25;5012187;28;20049;-87
2021/07/28 08:52:38;;;;;;;10.02;5.55;;;20.90;94.80;;;19.03;100.00;99972.00;5030239;28;20572;-88
2021/07/28 08:55:09;;;;;;;9.07;5.15;;;20.90;95.20;;;19.06;100.00;99970.69;5029528;28;20132;-88
2021/07/28 08:57:36;;;;;;;11.48;6.15;;;20.90;94.10;;;19.08;100.00;99965.75;5013547;28;20098;-88
2021/07/28 09:00:09;;;;;;;13.15;5.25;;;21.20;94.80;;;19.14;100.00;99971.06;5012066;28;20053;-87
2021/07/28 09:02:37;;;;;;;10.77;6.28;;;21.40;93.50;;;19.20;100.00;99963.69;5011913;28;20069;-87
2021/07/28 09:05:07;;;;;;;10.20;5.97;;;21.60;92.90;;;19.26;100.00;99965.41;5011986;28;20706;-88
2021/07/28 09:07:40;;;;;;;13.27;6.68;;;21.60;92.90;;;19.35;100.00;99957.53;5028759;28;20391;-88
2021/07/28 09:10:12;;;;;;;13.30;6.53;;;21.70;94.10;;;19.38;100.00;99968.06;5029897;28;20518;-87
2021/07/28 09:12:42;;;;;;;12.30;6.75;;;21.60;92.90;;;19.41;100.00;99961.19;5029871;28;20062;-87
2021/07/28 09:15:14;;;;;;;13.73;6.95;;;21.60;93.30;;;19.48;100.00;99964.59;5029501;28;20144;-87
2021/07/28 09:17:47;;;;;;;9.70;6.47;;;21.60;95.10;;;19.50;100.00;99965.19;5029131;28;20041;-87
2021/07/28 09:20:24;;;;;;;11.70;6.97;;;21.70;93.70;;;19.54;100.00;99969.91;5012033;28;20076;-88
2021/07/28 09:22:52;;;;;;;12.80;7.82;;;21.80;93.80;;;19.60;100.00;99972.75;5029805;28;20073;-88
2021/07/28 09:25:25;;;;;;;10.30;7.03;;;21.90;94.10;;;19.56;100.00;99971.59;5011748;28;20053;-88
2021/07/28 09:27:55;;;;;;;11.55;6.35;;;21.90;92.40;;;19.56;100.00;99966.06;5011592;28;20045;-88
2021/07/28 09:30:34;;;;;;;12.85;6.95;;;22.00;91.60;;;19.54;100.00;99971.84;5012054;28;20049;-88
2021/07/28 09:33:05;;;;;;;11.43;6.72;;;22.10;91.20;;;19.62;100.00;99976.09;5011922;28;20506;-87
2021/07/28 09:36:17;;;;;;;13.48;7.28;;;22.10;92.00;;;19.67;100.00;99967.88;5029960;28;20038;-88
2021/07/28 09:38:46;;;;;;;10.50;6.70;;;22.20;91.70;;;19.69;100.00;99965.69;5029695;28;20073;-88
2021/07/28 09:41:20;;;;;;;8.82;6.28;;;22.20;90.80;;;19.68;100.00;99970.34;5029436;28;20125;-87
2021/07/28 09:43:51;;;;;;;14.02;6.82;;;22.20;89.90;;;19.73;100.00;99969.63;5011671;28;20417;-87
2021/07/28 09:46:38;;;;;;;11.43;6.65;;;22.20;90.40;;;19.78;100.00;99963.31;5010726;28;20076;-86
2021/07/28 09:49:07;;;;;;;10.30;6.30;;;22.20;91.90;;;19.83;100.00;99966.97;5011588;28;20103;-87
2021/07/28 09:51:37;;;;;;;20.05;7.28;;;22.30;91.50;;;19.86;100.00;99963.69;5029305;28;20103;-88
2021/07/28 09:54:08;;;;;;;15.57;7.47;;;22.30;91.20;;;19.92;100.00;99951.59;5011511;28;20163;-88
2021/07/28 09:56:48;;;;;;;11.68;6.43;;;22.30;92.20;;;19.97;100.00;99953.59;5028587;28;20073;-87
2021/07/28 09:59:16;;;;;;;13.68;6.95;;;22.30;92.10;;;19.96;100.00;99954.66;5029288;28;20045;-88
2021/07/28 10:01:45;;;;;;;11.75;6.03;;;22.30;91.50;;;19.94;100.00;99945.00;5029236;28;20037;-87
2021/07/28 10:04:14;;;;;;;10.82;6.45;;;22.30;91.30;;;19.90;100.00;99959.31;5029012;28;20033;-87
2021/07/28 10:06:43;;;;;;;12.68;5.85;;;22.20;91.20;;;19.94;98.89;99950.50;5027720;28;20115;-88
2021/07/28 10:09:16;;;;;;;9.73;5.45;;;22.20;90.10;;;19.94;98.31;99942.22;5028930;28;20045;-88
2021/07/28 10:11:46;;;;;;;11.50;5.88;;;22.20;90.80;;;19.96;99.08;99937.28;5011151;28;20145;-88
2021/07/28 10:14:17;;;;;;;9.35;5.60;;;22.10;91.00;;;19.98;98.20;99940.59;5028659;28;20163;-88
2021/07/28 10:16:45;;;;;;;9.82;5.38;;;22.10;90.70;;;19.98;97.88;99935.91;5028161;28;20042;-88
2021/07/28 10:19:13;;;;;;;9.30;5.78;;;22.10;90.40;;;20.04;99.00;99936.78;5028797;28;20490;-88